KETN/ETN METAR and TAF weather

Enter ICAO airport designator
Station Type Date Time Source
KETN METAR 2020/01/21 15:35 UTC NOAA

KETN 211535Z AUTO 15003KT 10SM CLR 07/00 A3042 RMK AO2 T00651003


Station Type Date Time Source
KETN Decoded METAR 2020/01/21 15:35 UTC NOAA

Station name not available
Jan 21, 2020 - 10:35 AM EST / 2020.01.21 1535 UTC
Wind: from the SSE (150 degrees) at 3 MPH (3 KT):0
Visibility: 10 mile(s):0
Sky conditions: clear
Temperature: 43.7 F (6.5 C)
Dew Point: 31.5 F (-0.3 C)
Relative Humidity: 61%
Pressure (altimeter): 30.42 in. Hg (1030 hPa)
ob: KETN 211535Z AUTO 15003KT 10SM CLR 07/00 A3042 RMK AO2 T00651003
cycle: 15

Station Type Date Time Source
KETN TAF UTC NOAA

Error!

Example: see airport list